Barrington, Illinois
Current Conditions -  °F | °C
As of 12:52 PM on Thursday 18 Dec 2014 (Local Time) from KPWK Reporting Station
Overcast Overcast  
Wind Chill: 19°   Ceiling: 1900
Heat Index: 26°   Visibility: 10mi
Dew Point: 17°   Wind: 6mph
Humidity: 69%   Direction: 250°WSW
Pressure: 30.25"   Gusts: NA
Location:  42.15°N, 88.14°W
Report Text: KPWK 181852Z 25005KT 10SM OVC019 M03/M08 A3025 RMK AO2 SLP253 T10331083
Loading
Personal Weather Stations






























Interactive Weather Map New forecast layout! Learn more

10-Day Weather Forecast

Advertisements
Track Severe Weather on mobile